Pewsey, United Kingdom
Current Conditions -  °F | °C
As of 3:50 AM on Friday 31 Oct 2014 (Local Time) from EGDM Reporting Station
Haze Haze  
Wind Chill: 15°   Ceiling: 300
Heat Index: 15°   Visibility: 1.5mi
Dew Point: 15°   Wind: 10mph
Humidity: 100%   Direction: 160°SSE
Pressure: 30.03"   Gusts: NA
Location:  51.34°N, 1.77°W
Report Text: EGDM 310350Z AUTO 16009KT 2500 BR OVC003/// 15/15 Q1017
Loading
Personal Weather Stations






























Interactive Weather Map
Tropical Storm Tracking
New forecast layout! Learn more

10-Day Weather Forecast

Advertisements
Track Severe Weather on mobile